createdAt,value
2019-01-03T00:00:07.523Z,1031.18
2019-01-03T00:01:08.344Z,1031.17
2019-01-03T00:02:09.163Z,1031.17
2019-01-03T00:03:09.987Z,1031.17
2019-01-03T00:04:10.807Z,1031.14
2019-01-03T00:05:11.630Z,1031.18
2019-01-03T00:06:12.448Z,1031.17
2019-01-03T00:07:13.262Z,1031.14
2019-01-03T00:08:14.082Z,1031.10
2019-01-03T00:09:14.897Z,1031.08
2019-01-03T00:10:15.715Z,1031.12
2019-01-03T00:11:16.546Z,1031.06
2019-01-03T00:12:17.420Z,1031.07
2019-01-03T00:13:18.191Z,1031.06
2019-01-03T00:14:19.004Z,1031.07
2019-01-03T00:15:19.819Z,1031.09
2019-01-03T00:16:20.644Z,1031.09
2019-01-03T00:17:21.463Z,1031.12
2019-01-03T00:18:22.286Z,1031.14
2019-01-03T00:19:23.101Z,1031.08
2019-01-03T00:20:23.749Z,1031.06
2019-01-03T00:21:24.572Z,1031.09
2019-01-03T00:22:25.393Z,1031.09
2019-01-03T00:23:26.223Z,1031.09
2019-01-03T00:24:27.040Z,1031.11
2019-01-03T00:25:27.858Z,1031.10
2019-01-03T00:26:28.676Z,1031.09
2019-01-03T00:27:29.504Z,1031.10
2019-01-03T00:28:35.760Z,1031.11
2019-01-03T00:29:31.138Z,1031.15
2019-01-03T00:30:31.954Z,1031.11
2019-01-03T00:31:32.776Z,1031.12
2019-01-03T00:32:33.597Z,1031.10
2019-01-03T00:33:34.421Z,1031.09
2019-01-03T00:34:35.244Z,1031.14
2019-01-03T00:35:36.060Z,1031.14
2019-01-03T00:36:36.877Z,1031.08
2019-01-03T00:37:37.688Z,1031.14
2019-01-03T00:38:38.507Z,1031.15
2019-01-03T00:39:39.329Z,1031.23
2019-01-03T00:40:40.148Z,1031.20
2019-01-03T00:41:40.970Z,1031.20
2019-01-03T00:42:41.790Z,1031.25
2019-01-03T00:43:42.607Z,1031.24
2019-01-03T00:44:43.435Z,1031.27
2019-01-03T00:45:44.255Z,1031.24
2019-01-03T00:46:45.074Z,1031.25
2019-01-03T00:47:45.892Z,1031.29
2019-01-03T00:48:46.713Z,1031.25
2019-01-03T00:49:47.528Z,1031.29
2019-01-03T00:50:48.353Z,1031.31
2019-01-03T00:51:49.175Z,1031.30
2019-01-03T00:52:49.997Z,1031.34
2019-01-03T00:53:50.815Z,1031.34
2019-01-03T00:54:51.632Z,1031.36
2019-01-03T00:55:52.457Z,1031.40
2019-01-03T00:56:53.274Z,1031.38
2019-01-03T00:57:54.098Z,1031.40
2019-01-03T00:58:54.918Z,1031.41
2019-01-03T00:59:55.744Z,1031.40
2019-01-03T01:00:56.562Z,1031.42
2019-01-03T01:01:57.352Z,1031.45
2019-01-03T01:02:58.163Z,1031.40
2019-01-03T01:03:58.980Z,1031.45
2019-01-03T01:04:59.798Z,1031.46
2019-01-03T01:06:00.619Z,1031.48
2019-01-03T01:07:01.435Z,1031.50
2019-01-03T01:08:02.254Z,1031.52
2019-01-03T01:09:03.079Z,1031.56
2019-01-03T01:10:03.898Z,1031.58
2019-01-03T01:11:04.727Z,1031.61
2019-01-03T01:12:05.550Z,1031.64
2019-01-03T01:13:06.367Z,1031.66
2019-01-03T01:14:07.189Z,1031.66
2019-01-03T01:15:08.016Z,1031.73
2019-01-03T01:16:08.839Z,1031.76
2019-01-03T01:17:09.650Z,1031.78
2019-01-03T01:18:10.472Z,1031.75
2019-01-03T01:19:11.206Z,1031.77
2019-01-03T01:20:12.020Z,1031.76
2019-01-03T01:21:12.845Z,1031.74
2019-01-03T01:22:13.657Z,1031.80
2019-01-03T01:23:14.475Z,1031.84
2019-01-03T01:24:15.295Z,1031.78
2019-01-03T01:25:16.125Z,1031.77
2019-01-03T01:26:16.941Z,1031.82
2019-01-03T01:27:17.774Z,1031.78
2019-01-03T01:28:18.582Z,1031.77
2019-01-03T01:29:19.405Z,1031.83
2019-01-03T01:30:20.228Z,1031.80
2019-01-03T01:31:21.054Z,1031.84
2019-01-03T01:32:21.877Z,1031.83
2019-01-03T01:33:22.697Z,1031.84
2019-01-03T01:34:23.521Z,1031.83
2019-01-03T01:35:24.338Z,1031.85
2019-01-03T01:36:25.165Z,1031.81
2019-01-03T01:37:25.982Z,1031.81
2019-01-03T01:38:26.802Z,1031.82
2019-01-03T01:39:27.623Z,1031.80
2019-01-03T01:40:28.437Z,1031.78
2019-01-03T01:41:29.255Z,1031.83
2019-01-03T01:42:30.081Z,1031.87
2019-01-03T01:43:30.900Z,1031.88
2019-01-03T01:44:31.417Z,1031.90
2019-01-03T01:45:32.235Z,1031.94
2019-01-03T01:46:33.062Z,1031.93
2019-01-03T01:47:33.875Z,1031.94
2019-01-03T01:48:34.694Z,1031.92
2019-01-03T01:49:35.521Z,1031.93
2019-01-03T01:50:36.335Z,1031.91
2019-01-03T01:51:37.160Z,1031.92
2019-01-03T01:52:37.970Z,1031.92
2019-01-03T01:53:38.794Z,1031.84
2019-01-03T01:54:39.611Z,1031.85
2019-01-03T01:55:40.426Z,1031.83
2019-01-03T01:56:41.258Z,1031.82
2019-01-03T01:57:42.079Z,1031.82
2019-01-03T01:58:42.915Z,1031.80
2019-01-03T01:59:43.728Z,1031.82
2019-01-03T02:00:44.555Z,1031.79
2019-01-03T02:01:45.378Z,1031.81
2019-01-03T02:02:46.189Z,1031.82
2019-01-03T02:03:47.018Z,1031.78
2019-01-03T02:04:47.843Z,1031.79
2019-01-03T02:05:48.666Z,1031.78
2019-01-03T02:06:49.479Z,1031.75
2019-01-03T02:07:50.297Z,1031.77
2019-01-03T02:08:51.124Z,1031.76
2019-01-03T02:09:51.947Z,1031.79
2019-01-03T02:10:52.773Z,1031.85
2019-01-03T02:11:53.597Z,1031.83
2019-01-03T02:12:54.418Z,1031.87
2019-01-03T02:13:55.269Z,1031.89
2019-01-03T02:14:56.059Z,1031.92
2019-01-03T02:15:56.886Z,1031.89
2019-01-03T02:16:57.708Z,1031.87
2019-01-03T02:17:58.540Z,1031.88
2019-01-03T02:18:59.363Z,1031.83
2019-01-03T02:20:00.227Z,1031.80
2019-01-03T02:21:01.013Z,1031.77
2019-01-03T02:22:01.831Z,1031.79
2019-01-03T02:23:02.654Z,1031.77
2019-01-03T02:24:03.469Z,1031.70
2019-01-03T02:25:04.300Z,1031.67
2019-01-03T02:26:05.124Z,1031.67
2019-01-03T02:27:05.935Z,1031.67
2019-01-03T02:28:06.755Z,1031.64
2019-01-03T02:29:07.579Z,1031.65
2019-01-03T02:30:08.397Z,1031.66
2019-01-03T02:31:09.225Z,1031.66
2019-01-03T02:32:10.025Z,1031.71
2019-01-03T02:33:10.846Z,1031.72
2019-01-03T02:34:11.666Z,1031.67
2019-01-03T02:35:12.504Z,1031.63
2019-01-03T02:36:13.311Z,1031.61
2019-01-03T02:37:14.132Z,1031.56
2019-01-03T02:38:14.955Z,1031.53
2019-01-03T02:39:15.776Z,1031.52
2019-01-03T02:40:16.594Z,1031.50
2019-01-03T02:41:17.419Z,1031.48
2019-01-03T02:42:18.238Z,1031.48
2019-01-03T02:43:19.067Z,1031.51
2019-01-03T02:44:19.878Z,1031.49
2019-01-03T02:45:20.703Z,1031.43
2019-01-03T02:46:21.520Z,1031.43
2019-01-03T02:47:22.340Z,1031.42
2019-01-03T02:48:23.179Z,1031.45
2019-01-03T02:49:24.007Z,1031.43
2019-01-03T02:50:24.829Z,1031.38
2019-01-03T02:51:25.641Z,1031.44
2019-01-03T02:52:26.530Z,1031.45
2019-01-03T02:53:27.292Z,1031.44
2019-01-03T02:54:28.112Z,1031.45
2019-01-03T02:55:28.941Z,1031.45
2019-01-03T02:56:29.759Z,1031.41
2019-01-03T02:57:30.585Z,1031.43
2019-01-03T02:58:31.399Z,1031.44
2019-01-03T02:59:31.913Z,1031.47
2019-01-03T03:00:32.734Z,1031.43
2019-01-03T03:01:33.554Z,1031.44
2019-01-03T03:02:34.380Z,1031.45
2019-01-03T03:03:35.205Z,1031.47
2019-01-03T03:04:36.025Z,1031.44
2019-01-03T03:05:36.843Z,1031.52
2019-01-03T03:06:37.662Z,1031.50
2019-01-03T03:07:38.486Z,1031.51
2019-01-03T03:08:39.308Z,1031.53
2019-01-03T03:09:40.144Z,1031.51
2019-01-03T03:10:40.957Z,1031.56
2019-01-03T03:11:41.779Z,1031.56
2019-01-03T03:12:42.598Z,1031.55
2019-01-03T03:13:43.417Z,1031.60
2019-01-03T03:14:44.244Z,1031.61
2019-01-03T03:15:45.075Z,1031.62
2019-01-03T03:16:45.893Z,1031.58
2019-01-03T03:17:46.724Z,1031.56
2019-01-03T03:18:47.534Z,1031.56
2019-01-03T03:19:48.365Z,1031.56
2019-01-03T03:20:49.178Z,1031.50
2019-01-03T03:21:50.001Z,1031.57
2019-01-03T03:22:50.825Z,1031.56
2019-01-03T03:23:51.645Z,1031.59
2019-01-03T03:24:53.573Z,1031.52
2019-01-03T03:25:53.282Z,1031.49
2019-01-03T03:26:54.104Z,1031.49
2019-01-03T03:27:54.927Z,1031.45
2019-01-03T03:28:55.742Z,1031.41
2019-01-03T03:29:56.571Z,1031.45
2019-01-03T03:30:57.396Z,1031.46
2019-01-03T03:31:58.208Z,1031.45
2019-01-03T03:32:59.034Z,1031.44
2019-01-03T03:33:59.855Z,1031.41
2019-01-03T03:35:00.683Z,1031.43
2019-01-03T03:36:01.497Z,1031.44
2019-01-03T03:37:02.322Z,1031.48
2019-01-03T03:38:03.142Z,1031.54
2019-01-03T03:39:03.964Z,1031.52
2019-01-03T03:40:04.796Z,1031.52
2019-01-03T03:41:05.531Z,1031.48
2019-01-03T03:42:06.382Z,1031.50
2019-01-03T03:43:07.206Z,1031.49
2019-01-03T03:44:08.029Z,1031.47
2019-01-03T03:45:08.861Z,1031.46
2019-01-03T03:46:09.684Z,1031.45
2019-01-03T03:47:10.505Z,1031.43
2019-01-03T03:48:11.334Z,1031.44
2019-01-03T03:49:12.161Z,1031.46
2019-01-03T03:50:12.979Z,1031.45
2019-01-03T03:51:13.806Z,1031.40
2019-01-03T03:52:14.628Z,1031.40
2019-01-03T03:53:15.442Z,1031.37
2019-01-03T03:54:16.267Z,1031.38
2019-01-03T03:55:17.080Z,1031.36
2019-01-03T03:56:17.908Z,1031.37
2019-01-03T03:57:18.723Z,1031.38
2019-01-03T03:58:19.549Z,1031.38
2019-01-03T03:59:20.371Z,1031.38
2019-01-03T04:00:21.196Z,1031.36
2019-01-03T04:01:22.035Z,1031.36
2019-01-03T04:02:22.834Z,1031.34
2019-01-03T04:03:23.658Z,1031.38
2019-01-03T04:04:24.472Z,1031.38
2019-01-03T04:05:25.301Z,1031.40
2019-01-03T04:06:26.126Z,1031.36
2019-01-03T04:07:26.943Z,1031.40
2019-01-03T04:08:27.768Z,1031.32
2019-01-03T04:09:28.585Z,1031.35
2019-01-03T04:10:29.405Z,1031.34
2019-01-03T04:11:30.222Z,1031.31
2019-01-03T04:12:31.041Z,1031.33
2019-01-03T04:13:31.868Z,1031.34
2019-01-03T04:14:32.712Z,1031.28
2019-01-03T04:15:33.506Z,1031.29
2019-01-03T04:16:34.322Z,1031.29
2019-01-03T04:17:35.170Z,1031.28
2019-01-03T04:18:35.969Z,1031.28
2019-01-03T04:19:36.792Z,1031.28
2019-01-03T04:20:37.612Z,1031.29
2019-01-03T04:21:38.431Z,1031.28
2019-01-03T04:22:39.253Z,1031.26
2019-01-03T04:23:40.068Z,1031.22
2019-01-03T04:24:40.893Z,1031.23
2019-01-03T04:25:41.715Z,1031.22
2019-01-03T04:26:42.533Z,1031.23
2019-01-03T04:27:43.352Z,1031.23
2019-01-03T04:28:44.176Z,1031.25
2019-01-03T04:29:44.989Z,1031.23
2019-01-03T04:30:45.814Z,1031.22
2019-01-03T04:31:46.632Z,1031.25
2019-01-03T04:32:47.446Z,1031.21
2019-01-03T04:33:48.271Z,1031.22
2019-01-03T04:34:49.095Z,1031.22
2019-01-03T04:35:49.946Z,1031.21
2019-01-03T04:36:50.762Z,1031.23
2019-01-03T04:37:51.581Z,1031.21
2019-01-03T04:38:52.400Z,1031.20
2019-01-03T04:39:53.220Z,1031.21
2019-01-03T04:40:54.035Z,1031.25
2019-01-03T04:41:54.854Z,1031.25
2019-01-03T04:42:55.681Z,1031.24
2019-01-03T04:43:56.502Z,1031.27
2019-01-03T04:44:57.489Z,1031.27
2019-01-03T04:45:58.306Z,1031.26
2019-01-03T04:46:59.130Z,1031.29
2019-01-03T04:47:59.984Z,1031.24
2019-01-03T04:49:01.078Z,1031.31
2019-01-03T04:50:01.892Z,1031.30
2019-01-03T04:51:02.709Z,1031.29
2019-01-03T04:52:03.536Z,1031.31
2019-01-03T04:53:04.359Z,1031.34
2019-01-03T04:54:04.867Z,1031.32
2019-01-03T04:55:05.665Z,1031.32
2019-01-03T04:56:06.483Z,1031.31
2019-01-03T04:57:07.301Z,1031.32
2019-01-03T04:58:08.129Z,1031.27
2019-01-03T04:59:08.952Z,1031.28
2019-01-03T05:00:09.767Z,1031.26
2019-01-03T05:01:10.586Z,1031.27
2019-01-03T05:02:11.409Z,1031.27
2019-01-03T05:03:12.245Z,1031.22
2019-01-03T05:04:13.056Z,1031.21
2019-01-03T05:05:13.868Z,1031.22
2019-01-03T05:06:14.691Z,1031.20
2019-01-03T05:07:15.507Z,1031.16
2019-01-03T05:08:16.330Z,1031.15
2019-01-03T05:09:17.155Z,1031.15
2019-01-03T05:10:17.991Z,1031.15
2019-01-03T05:11:18.798Z,1031.14
2019-01-03T05:12:19.624Z,1031.14
2019-01-03T05:13:20.441Z,1031.17
2019-01-03T05:14:21.260Z,1031.18
2019-01-03T05:15:22.082Z,1031.19
2019-01-03T05:16:22.906Z,1031.19
2019-01-03T05:17:23.723Z,1031.20
2019-01-03T05:18:24.548Z,1031.18
2019-01-03T05:19:25.363Z,1031.20
2019-01-03T05:20:26.179Z,1031.23
2019-01-03T05:21:26.998Z,1031.21
2019-01-03T05:22:27.825Z,1031.25
2019-01-03T05:23:28.646Z,1031.23
2019-01-03T05:24:29.469Z,1031.17
2019-01-03T05:25:30.283Z,1031.20
2019-01-03T05:26:31.118Z,1031.20
2019-01-03T05:27:31.932Z,1031.18
2019-01-03T05:28:32.756Z,1031.17
2019-01-03T05:29:33.574Z,1031.16
2019-01-03T05:30:34.392Z,1031.20
2019-01-03T05:31:34.895Z,1031.14
2019-01-03T05:32:35.715Z,1031.16
2019-01-03T05:33:36.530Z,1031.14
2019-01-03T05:34:37.359Z,1031.16
2019-01-03T05:35:38.176Z,1031.18
2019-01-03T05:36:38.996Z,1031.20
2019-01-03T05:37:39.811Z,1031.22
2019-01-03T05:38:40.629Z,1031.19
2019-01-03T05:39:41.456Z,1031.20
2019-01-03T05:40:42.274Z,1031.23
2019-01-03T05:41:43.109Z,1031.24
2019-01-03T05:42:43.920Z,1031.26
2019-01-03T05:43:44.745Z,1031.26
2019-01-03T05:44:45.568Z,1031.23
2019-01-03T05:45:46.395Z,1031.26
2019-01-03T05:46:47.213Z,1031.25
2019-01-03T05:47:48.033Z,1031.25
2019-01-03T05:48:48.853Z,1031.29
2019-01-03T05:49:49.674Z,1031.28
2019-01-03T05:50:50.495Z,1031.33
2019-01-03T05:51:51.329Z,1031.29
2019-01-03T05:52:52.146Z,1031.29
2019-01-03T05:53:52.973Z,1031.33
2019-01-03T05:54:53.798Z,1031.33
2019-01-03T05:55:54.614Z,1031.32
2019-01-03T05:56:55.439Z,1031.34
2019-01-03T05:57:56.262Z,1031.36
2019-01-03T05:58:57.075Z,1031.39
2019-01-03T05:59:57.900Z,1031.36
2019-01-03T06:00:58.720Z,1031.37
2019-01-03T06:01:59.540Z,1031.36
2019-01-03T06:03:00.365Z,1031.39
2019-01-03T06:04:01.183Z,1031.36
2019-01-03T06:05:02.211Z,1031.37
2019-01-03T06:06:03.030Z,1031.41
2019-01-03T06:07:03.853Z,1031.38
2019-01-03T06:08:04.671Z,1031.37
2019-01-03T06:09:05.486Z,1031.39
2019-01-03T06:10:06.315Z,1031.40
2019-01-03T06:11:07.130Z,1031.40
2019-01-03T06:12:07.946Z,1031.42
2019-01-03T06:13:08.782Z,1031.42
2019-01-03T06:14:09.591Z,1031.43
2019-01-03T06:15:10.411Z,1031.43
2019-01-03T06:16:11.232Z,1031.42
2019-01-03T06:17:12.045Z,1031.44
2019-01-03T06:18:12.866Z,1031.41
2019-01-03T06:19:13.691Z,1031.41
2019-01-03T06:20:14.506Z,1031.41
2019-01-03T06:21:15.327Z,1031.41
2019-01-03T06:22:16.148Z,1031.42
2019-01-03T06:23:16.983Z,1031.44
2019-01-03T06:24:17.796Z,1031.36
2019-01-03T06:25:18.621Z,1031.37
2019-01-03T06:26:19.440Z,1031.35
2019-01-03T06:27:20.249Z,1031.36
2019-01-03T06:28:21.074Z,1031.39
2019-01-03T06:29:21.892Z,1031.40
2019-01-03T06:30:22.717Z,1031.37
2019-01-03T06:31:23.541Z,1031.37
2019-01-03T06:32:24.356Z,1031.36
2019-01-03T06:33:25.174Z,1031.40
2019-01-03T06:34:25.993Z,1031.34
2019-01-03T06:35:26.809Z,1031.32
2019-01-03T06:36:27.639Z,1031.29
2019-01-03T06:37:28.458Z,1031.34
2019-01-03T06:38:29.281Z,1031.32
2019-01-03T06:39:30.104Z,1031.34
2019-01-03T06:40:31.205Z,1031.33
2019-01-03T06:41:32.037Z,1031.31
2019-01-03T06:42:32.866Z,1031.29
2019-01-03T06:43:33.680Z,1031.30
2019-01-03T06:44:34.510Z,1031.31
2019-01-03T06:45:35.333Z,1031.27
2019-01-03T06:46:36.149Z,1031.30
2019-01-03T06:47:36.972Z,1031.29
2019-01-03T06:48:37.797Z,1031.34
2019-01-03T06:49:38.624Z,1031.31
2019-01-03T06:50:39.454Z,1031.31
2019-01-03T06:51:40.275Z,1031.30
2019-01-03T06:52:41.097Z,1031.33
2019-01-03T06:53:41.915Z,1031.36
2019-01-03T06:54:42.543Z,1031.39
2019-01-03T06:55:43.366Z,1031.36
2019-01-03T06:56:44.184Z,1031.32
2019-01-03T06:57:45.005Z,1031.32
2019-01-03T06:58:45.821Z,1031.34
2019-01-03T06:59:46.642Z,1031.34
2019-01-03T07:00:47.464Z,1031.32
2019-01-03T07:01:48.289Z,1031.35
2019-01-03T07:02:49.106Z,1031.41
2019-01-03T07:03:49.923Z,1031.37
2019-01-03T07:04:50.741Z,1031.39
2019-01-03T07:05:51.563Z,1031.37
2019-01-03T07:06:52.385Z,1031.38
2019-01-03T07:07:53.225Z,1031.35
2019-01-03T07:08:54.023Z,1031.35
2019-01-03T07:09:54.849Z,1031.36
2019-01-03T07:10:55.673Z,1031.42
2019-01-03T07:11:56.492Z,1031.42
2019-01-03T07:12:57.311Z,1031.44
2019-01-03T07:13:58.131Z,1031.39
2019-01-03T07:14:58.958Z,1031.41
2019-01-03T07:15:59.775Z,1031.41
2019-01-03T07:17:00.594Z,1031.42
2019-01-03T07:18:01.411Z,1031.46
2019-01-03T07:19:02.236Z,1031.48
2019-01-03T07:20:03.047Z,1031.47
2019-01-03T07:21:03.872Z,1031.46
2019-01-03T07:22:04.693Z,1031.50
2019-01-03T07:23:05.516Z,1031.51
2019-01-03T07:24:06.339Z,1031.57
2019-01-03T07:25:07.169Z,1031.67
2019-01-03T07:26:07.972Z,1031.66
2019-01-03T07:27:08.794Z,1031.64
2019-01-03T07:28:09.629Z,1031.59
2019-01-03T07:29:10.448Z,1031.59
2019-01-03T07:30:11.276Z,1031.63
2019-01-03T07:31:12.104Z,1031.65
2019-01-03T07:32:12.923Z,1031.66
2019-01-03T07:33:13.736Z,1031.69
2019-01-03T07:34:14.557Z,1031.65
2019-01-03T07:35:15.386Z,1031.65
2019-01-03T07:36:16.206Z,1031.66
2019-01-03T07:37:16.748Z,1031.67
2019-01-03T07:38:17.576Z,1031.68
2019-01-03T07:39:18.410Z,1031.71
2019-01-03T07:40:19.232Z,1031.75
2019-01-03T07:41:20.063Z,1031.81
2019-01-03T07:42:20.877Z,1031.80
2019-01-03T07:43:21.697Z,1031.81
2019-01-03T07:44:22.516Z,1031.88
2019-01-03T07:45:23.342Z,1031.87
2019-01-03T07:46:24.165Z,1031.85
2019-01-03T07:47:24.992Z,1031.88
2019-01-03T07:48:25.817Z,1031.91
2019-01-03T07:49:26.637Z,1031.85
2019-01-03T07:50:27.452Z,1031.83
2019-01-03T07:51:28.271Z,1031.79
2019-01-03T07:52:29.097Z,1031.84
2019-01-03T07:53:29.912Z,1031.90
2019-01-03T07:54:30.730Z,1031.85
2019-01-03T07:55:31.548Z,1031.88
2019-01-03T07:56:32.170Z,1031.84
2019-01-03T07:57:32.981Z,1031.87
2019-01-03T07:58:33.808Z,1031.84
2019-01-03T07:59:35.332Z,1031.87
2019-01-03T08:00:35.447Z,1031.91
2019-01-03T08:01:36.262Z,1031.91
2019-01-03T08:02:37.091Z,1031.89
2019-01-03T08:03:37.910Z,1031.92
2019-01-03T08:04:38.730Z,1031.94
2019-01-03T08:05:39.547Z,1031.88
2019-01-03T08:06:40.367Z,1031.89
2019-01-03T08:07:41.199Z,1031.91
2019-01-03T08:08:42.012Z,1031.94
2019-01-03T08:09:42.834Z,1031.96
2019-01-03T08:10:43.648Z,1031.98
2019-01-03T08:11:44.474Z,1031.98
2019-01-03T08:12:45.302Z,1032.01
2019-01-03T08:13:46.123Z,1032.03
2019-01-03T08:14:46.941Z,1032.04
2019-01-03T08:15:47.760Z,1032.03
2019-01-03T08:16:48.583Z,1032.01
2019-01-03T08:17:49.406Z,1032.00
2019-01-03T08:18:50.228Z,1032.02
2019-01-03T08:19:51.048Z,1032.04
2019-01-03T08:20:51.870Z,1032.05
2019-01-03T08:21:52.686Z,1032.09
2019-01-03T08:22:53.504Z,1032.07
2019-01-03T08:23:54.329Z,1032.05
2019-01-03T08:24:55.148Z,1032.09
2019-01-03T08:25:55.971Z,1032.07
2019-01-03T08:26:56.793Z,1032.07
2019-01-03T08:27:57.611Z,1032.07
2019-01-03T08:28:58.433Z,1032.04
2019-01-03T08:29:59.248Z,1032.05
2019-01-03T08:31:00.066Z,1032.06
2019-01-03T08:32:00.883Z,1032.07
2019-01-03T08:33:01.704Z,1032.03
2019-01-03T08:34:02.533Z,1032.06
2019-01-03T08:35:03.348Z,1032.06
2019-01-03T08:36:04.169Z,1032.06
2019-01-03T08:37:04.990Z,1032.05
2019-01-03T08:38:05.814Z,1032.10
2019-01-03T08:39:06.632Z,1032.09
2019-01-03T08:40:07.449Z,1032.10
2019-01-03T08:41:08.277Z,1032.09
2019-01-03T08:42:09.092Z,1032.11
2019-01-03T08:43:09.918Z,1032.10
2019-01-03T08:44:10.732Z,1032.07
2019-01-03T08:45:11.557Z,1032.07
2019-01-03T08:46:12.388Z,1032.05
2019-01-03T08:47:13.208Z,1032.06
2019-01-03T08:48:14.026Z,1032.07
2019-01-03T08:49:14.849Z,1032.08
2019-01-03T08:50:15.674Z,1032.08
2019-01-03T08:51:16.486Z,1032.07
2019-01-03T08:52:17.306Z,1032.06
2019-01-03T08:53:18.124Z,1032.07
2019-01-03T08:54:18.952Z,1032.10
2019-01-03T08:55:19.986Z,1032.12
2019-01-03T08:56:20.810Z,1032.16
2019-01-03T08:57:21.636Z,1032.12
2019-01-03T08:58:22.455Z,1032.12
2019-01-03T08:59:23.281Z,1032.13
2019-01-03T09:00:24.104Z,1032.13
2019-01-03T09:01:24.929Z,1032.11
2019-01-03T09:02:25.745Z,1032.14
2019-01-03T09:03:26.582Z,1032.16
2019-01-03T09:04:27.387Z,1032.11
2019-01-03T09:05:28.205Z,1032.17
2019-01-03T09:06:29.025Z,1032.20
2019-01-03T09:07:29.845Z,1032.18
2019-01-03T09:08:30.666Z,1032.23
2019-01-03T09:09:31.488Z,1032.19
2019-01-03T09:10:32.307Z,1032.22
2019-01-03T09:11:33.125Z,1032.25
2019-01-03T09:12:33.947Z,1032.27
2019-01-03T09:13:34.766Z,1032.24
2019-01-03T09:14:35.583Z,1032.22
2019-01-03T09:15:36.402Z,1032.29
2019-01-03T09:16:37.229Z,1032.24
2019-01-03T09:17:38.046Z,1032.31
2019-01-03T09:18:38.871Z,1032.32
2019-01-03T09:19:39.692Z,1032.30
2019-01-03T09:20:40.512Z,1032.33
2019-01-03T09:21:41.418Z,1032.33
2019-01-03T09:22:42.168Z,1032.25
2019-01-03T09:23:42.989Z,1032.26
2019-01-03T09:24:43.816Z,1032.26
2019-01-03T09:25:44.630Z,1032.26
2019-01-03T09:26:45.448Z,1032.27
2019-01-03T09:27:46.272Z,1032.27
2019-01-03T09:28:47.096Z,1032.27
2019-01-03T09:29:47.918Z,1032.26
2019-01-03T09:30:48.733Z,1032.27
2019-01-03T09:31:49.560Z,1032.28
2019-01-03T09:32:50.381Z,1032.25
2019-01-03T09:33:51.206Z,1032.28
2019-01-03T09:34:52.033Z,1032.30
2019-01-03T09:35:52.861Z,1032.23
2019-01-03T09:36:53.685Z,1032.26
2019-01-03T09:37:54.510Z,1032.22
2019-01-03T09:41:21.998Z,1032.50
2019-01-03T09:42:22.825Z,1032.49
2019-01-03T09:45:18.140Z,1032.54
2019-01-03T09:46:18.986Z,1032.55
2019-01-03T09:49:14.021Z,1032.64
2019-01-03T09:50:14.830Z,1032.58
2019-01-03T09:53:09.642Z,1032.54
2019-01-03T09:54:10.457Z,1032.51
2019-01-03T09:57:05.014Z,1032.49
2019-01-03T09:58:05.955Z,1032.50
2019-01-03T10:01:00.925Z,1032.48
2019-01-03T10:02:02.829Z,1032.41
2019-01-03T10:04:57.647Z,1032.36
2019-01-03T10:05:58.481Z,1032.39
2019-01-03T10:06:59.369Z,1032.38
2019-01-03T10:08:00.177Z,1032.40
2019-01-03T10:09:00.985Z,1032.36
2019-01-03T10:10:01.807Z,1032.34
2019-01-03T10:11:02.627Z,1032.27
2019-01-03T10:12:03.431Z,1032.24
2019-01-03T10:13:04.242Z,1032.28
2019-01-03T10:14:05.049Z,1032.25
2019-01-03T10:15:05.857Z,1032.31
2019-01-03T10:16:06.692Z,1032.30
2019-01-03T10:17:07.506Z,1032.33
2019-01-03T10:18:08.324Z,1032.36
2019-01-03T10:19:09.175Z,1032.39
2019-01-03T10:20:09.986Z,1032.39
2019-01-03T10:21:10.808Z,1032.43
2019-01-03T10:22:11.609Z,1032.43
2019-01-03T10:23:12.422Z,1032.44
2019-01-03T10:24:13.251Z,1032.43
2019-01-03T10:25:14.049Z,1032.43
2019-01-03T13:48:33.888Z,1031.61
2019-01-03T13:49:34.763Z,1031.65
2019-01-03T13:50:35.571Z,1031.60
2019-01-03T13:51:51.922Z,1031.58
2019-01-03T13:52:52.723Z,1031.62
2019-01-03T13:53:54.594Z,1031.55
2019-01-03T13:54:55.404Z,1031.56
2019-01-03T13:55:57.276Z,1031.60
2019-01-03T13:56:58.077Z,1031.66
2019-01-03T13:58:26.988Z,1031.66
2019-01-03T13:59:27.791Z,1031.64
2019-01-03T14:00:28.735Z,1031.62
2019-01-03T14:01:29.545Z,1031.65
2019-01-03T14:02:53.426Z,1031.62
2019-01-03T14:03:54.242Z,1031.65
2019-01-03T14:04:55.184Z,1031.63
2019-01-03T14:05:55.997Z,1031.68
2019-01-03T14:06:56.908Z,1031.62
2019-01-03T14:07:57.720Z,1031.68
2019-01-03T14:08:58.562Z,1031.65
2019-01-03T14:09:59.372Z,1031.60
2019-01-03T14:11:00.212Z,1031.59
2019-01-03T14:12:01.021Z,1031.58
2019-01-03T14:13:03.894Z,1031.56
2019-01-03T14:14:04.705Z,1031.56
2019-01-03T14:15:05.547Z,1031.56
2019-01-03T14:16:06.351Z,1031.61
2019-01-03T14:17:07.203Z,1031.61
2019-01-03T14:18:08.009Z,1031.61
2019-01-03T14:19:29.931Z,1031.59
2019-01-03T14:20:30.760Z,1031.65
2019-01-03T14:21:40.489Z,1031.67
2019-01-03T14:22:41.289Z,1031.63
2019-01-03T14:33:43.371Z,1031.75
2019-01-03T14:34:44.191Z,1031.72
2019-01-03T15:40:00.727Z,1032.01
2019-01-03T15:41:01.915Z,1032.06
2019-01-03T15:43:56.274Z,1032.05
2019-01-03T15:44:58.092Z,1032.09
2019-01-03T15:45:59.154Z,1032.10
2019-01-03T15:46:59.718Z,1032.07
2019-01-03T15:48:00.197Z,1032.07
2019-01-03T15:49:00.677Z,1032.09
2019-01-03T15:53:37.724Z,1032.15
2019-01-03T15:54:38.534Z,1032.19
2019-01-03T15:55:39.358Z,1032.18
2019-01-03T15:56:40.160Z,1032.18
2019-01-03T15:57:40.978Z,1032.16
2019-01-03T15:58:41.785Z,1032.20
2019-01-03T15:59:42.598Z,1032.19
2019-01-03T16:00:43.416Z,1032.18
2019-01-03T16:01:44.216Z,1032.16
2019-01-03T16:02:45.031Z,1032.15
2019-01-03T16:03:45.842Z,1032.14
2019-01-03T16:04:46.655Z,1032.17
2019-01-03T16:05:47.477Z,1032.15
2019-01-03T16:06:48.284Z,1032.14
2019-01-03T16:07:49.095Z,1032.14
2019-01-03T16:08:49.905Z,1032.11
2019-01-03T16:09:50.724Z,1032.13
2019-01-03T16:10:51.523Z,1032.09
2019-01-03T16:11:52.376Z,1032.08
2019-01-03T16:12:53.156Z,1032.08
2019-01-03T16:13:53.957Z,1032.14
2019-01-03T16:14:54.764Z,1032.20
2019-01-03T16:15:55.577Z,1032.22
